Time;durP1;ratioP1;P1;durP2;ratioP2;P2;SDS_P1;SDS_P2;PMS_P1;PMS_P2;Temp;Humidity;BMP_temperature;BMP_pressure;BME280_temperature;BME280_humidity;BME280_pressure;Samples;Min_cycle;Max_cycle;Signal;HPM_P1;HPM_P2
2022/01/25 00:27:48;;;;;;;0.40;0.40;;;0.50;92.30;;;;;;5072117;28;20181;-68
2022/01/25 00:30:25;;;;;;;0.40;0.40;;;0.60;92.30;;;;;;5050559;28;20294;-67
2022/01/25 00:32:51;;;;;;;0.40;0.40;;;0.60;92.40;;;;;;5054795;28;20173;-67
2022/01/25 00:35:17;;;;;;;0.40;0.40;;;0.60;92.60;;;;;;5054738;28;20557;-67
2022/01/25 00:37:42;;;;;;;0.40;0.40;;;0.60;92.60;;;;;;5054550;28;20179;-68
2022/01/25 00:40:09;;;;;;;0.50;0.50;;;0.60;92.70;;;;;;5054478;28;20949;-67
2022/01/25 00:42:34;;;;;;;0.40;0.40;;;0.60;92.60;;;;;;5054628;28;20197;-67
2022/01/25 00:45:00;;;;;;;0.40;0.40;;;0.70;92.50;;;;;;5055116;28;20249;-67
2022/01/25 00:47:26;;;;;;;0.30;0.30;;;0.70;92.30;;;;;;5054298;28;20698;-67
2022/01/25 00:49:53;;;;;;;0.30;0.30;;;0.80;92.20;;;;;;5054233;28;20460;-68
2022/01/25 00:55:04;;;;;;;0.40;0.40;;;0.70;91.90;;;;;;5054490;28;20216;-67
2022/01/25 00:57:29;;;;;;;0.30;0.30;;;0.70;91.70;;;;;;5054065;28;20170;-67
2022/01/25 00:59:55;;;;;;;0.50;0.50;;;0.70;91.80;;;;;;5054090;28;20308;-67
2022/01/25 01:02:20;;;;;;;0.30;0.30;;;0.70;91.90;;;;;;5054230;28;20253;-68
2022/01/25 01:04:47;;;;;;;0.30;0.30;;;0.60;92.00;;;;;;5054065;28;20600;-67
2022/01/25 01:07:15;;;;;;;0.40;0.40;;;0.60;91.90;;;;;;5054210;28;20190;-67
2022/01/25 01:09:44;;;;;;;0.30;0.30;;;0.60;91.90;;;;;;5054114;28;20638;-67
2022/01/25 01:12:17;;;;;;;0.40;0.40;;;0.60;92.00;;;;;;5053962;28;20158;-67
2022/01/25 01:31:22;;;;;;;0.40;0.40;;;0.80;91.50;;;;;;5053653;28;20220;-67
2022/01/25 01:44:09;;;;;;;0.30;0.30;;;0.70;92.20;;;;;;5053642;28;20177;-68
2022/01/25 01:49:03;;;;;;;0.40;0.40;;;0.70;92.00;;;;;;5053343;28;20189;-67
2022/01/25 01:51:34;;;;;;;0.30;0.30;;;0.70;91.90;;;;;;5053392;28;20203;-67
2022/01/25 01:54:09;;;;;;;0.38;0.38;;;0.70;91.90;;;;;;5053637;28;20162;-67
2022/01/25 01:56:35;;;;;;;0.30;0.30;;;0.70;91.90;;;;;;5053294;28;20169;-68
2022/01/25 01:59:05;;;;;;;0.30;0.30;;;0.70;91.90;;;;;;5053240;28;20218;-68
2022/01/25 02:01:32;;;;;;;0.30;0.30;;;0.70;92.00;;;;;;5053383;28;20166;-67
2022/01/25 02:03:59;;;;;;;0.30;0.30;;;0.70;92.40;;;;;;5053379;28;20170;-68
2022/01/25 02:06:25;;;;;;;0.40;0.40;;;0.70;92.80;;;;;;5053225;28;20198;-67
2022/01/25 02:08:51;;;;;;;0.40;0.40;;;0.80;93.00;;;;;;5053077;28;20225;-68
2022/01/25 02:11:17;;;;;;;0.30;0.30;;;0.80;93.10;;;;;;5053223;28;20436;-68
2022/01/25 02:13:43;;;;;;;0.40;0.40;;;0.80;92.90;;;;;;5053314;28;20167;-68
2022/01/25 02:16:20;;;;;;;0.40;0.40;;;0.80;92.90;;;;;;5053074;28;20396;-68
2022/01/25 02:24:13;;;;;;;0.40;0.40;;;0.70;92.20;;;;;;5053051;28;20186;-67
2022/01/25 02:26:39;;;;;;;0.30;0.30;;;0.80;92.10;;;;;;5052733;28;20628;-67
2022/01/25 02:29:05;;;;;;;0.30;0.30;;;0.90;92.10;;;;;;5052829;28;20571;-67
2022/01/25 02:31:31;;;;;;;0.40;0.40;;;0.90;91.80;;;;;;5053246;28;20210;-67
2022/01/25 02:33:56;;;;;;;0.40;0.40;;;0.90;91.60;;;;;;5053051;28;20404;-68
2022/01/25 02:36:27;;;;;;;0.50;0.50;;;0.90;91.40;;;;;;5052865;28;20400;-68
2022/01/25 02:38:54;;;;;;;0.40;0.40;;;0.90;91.40;;;;;;5053122;28;20220;-67
2022/01/25 02:41:21;;;;;;;0.40;0.40;;;0.90;91.40;;;;;;5052877;28;20659;-67
2022/01/25 02:43:47;;;;;;;0.30;0.30;;;0.90;91.40;;;;;;5052848;28;20208;-67
2022/01/25 02:48:54;;;;;;;0.30;0.30;;;0.80;92.00;;;;;;5053867;28;20194;-67
2022/01/25 02:51:23;;;;;;;0.30;0.30;;;0.90;92.10;;;;;;5056664;28;20174;-68
2022/01/25 02:53:48;;;;;;;0.40;0.40;;;0.90;92.10;;;;;;5056728;28;20178;-68
2022/01/25 02:56:16;;;;;;;0.30;0.30;;;0.90;92.00;;;;;;5056570;28;20166;-67
2022/01/25 02:58:42;;;;;;;0.30;0.30;;;0.90;91.90;;;;;;5056323;28;20439;-67
2022/01/25 03:01:08;;;;;;;0.30;0.30;;;1.00;91.60;;;;;;5056628;28;20170;-68
2022/01/25 03:03:34;;;;;;;0.30;0.30;;;1.00;91.50;;;;;;5056605;28;20496;-67
2022/01/25 03:05:59;;;;;;;0.30;0.30;;;1.00;91.40;;;;;;5056277;28;20293;-68
2022/01/25 03:08:25;;;;;;;0.30;0.30;;;1.00;91.30;;;;;;5054901;28;20795;-67
2022/01/25 03:10:51;;;;;;;0.30;0.30;;;1.00;91.10;;;;;;5056207;28;20198;-68
2022/01/25 03:13:21;;;;;;;0.30;0.30;;;1.00;90.90;;;;;;5056274;28;20197;-67
2022/01/25 03:18:23;;;;;;;0.30;0.30;;;1.10;90.80;;;;;;5056211;28;20258;-68
2022/01/25 03:20:50;;;;;;;0.30;0.30;;;1.10;90.90;;;;;;5056069;28;20460;-68
2022/01/25 03:23:18;;;;;;;0.30;0.30;;;1.10;91.00;;;;;;5056616;28;20194;-68
2022/01/25 03:25:47;;;;;;;0.30;0.30;;;1.00;91.00;;;;;;5055810;28;20535;-68
2022/01/25 03:28:13;;;;;;;0.30;0.30;;;1.00;90.90;;;;;;5055830;28;20177;-68
2022/01/25 03:30:39;;;;;;;0.40;0.40;;;1.00;91.00;;;;;;5055660;28;20280;-68
2022/01/25 03:33:05;;;;;;;0.30;0.30;;;1.00;91.10;;;;;;5055936;28;20625;-67
2022/01/25 03:35:30;;;;;;;0.30;0.30;;;1.00;91.40;;;;;;5055430;28;20174;-67
2022/01/25 03:37:56;;;;;;;0.40;0.40;;;1.00;91.20;;;;;;5055602;28;20253;-68
2022/01/25 03:40:22;;;;;;;0.30;0.30;;;1.00;91.40;;;;;;5055450;28;20186;-68
2022/01/25 03:42:48;;;;;;;0.30;0.30;;;0.90;91.60;;;;;;5055621;28;20175;-68
2022/01/25 03:45:19;;;;;;;0.40;0.40;;;0.90;91.60;;;;;;5055767;28;20237;-68
2022/01/25 03:50:31;;;;;;;0.40;0.40;;;1.00;91.80;;;;;;5064420;28;20218;-68
2022/01/25 03:52:57;;;;;;;0.40;0.40;;;1.00;91.70;;;;;;5055706;28;20173;-68
2022/01/25 03:55:23;;;;;;;0.40;0.40;;;1.00;91.70;;;;;;5055269;28;20166;-67
2022/01/25 03:57:48;;;;;;;0.40;0.40;;;0.90;91.70;;;;;;5055606;28;20180;-67
2022/01/25 04:00:15;;;;;;;0.40;0.40;;;0.90;91.70;;;;;;5055010;28;20280;-68
2022/01/25 04:02:49;;;;;;;0.30;0.30;;;0.90;91.70;;;;;;5055273;28;20530;-68
2022/01/25 04:05:21;;;;;;;0.30;0.30;;;0.90;92.10;;;;;;5055493;28;20184;-67
2022/01/25 04:07:50;;;;;;;0.30;0.30;;;0.90;91.80;;;;;;5055144;28;20163;-67
2022/01/25 04:10:20;;;;;;;0.40;0.40;;;0.90;91.80;;;;;;5055091;28;20202;-68
2022/01/25 04:12:48;;;;;;;0.30;0.30;;;0.90;91.70;;;;;;5055094;28;20606;-68
2022/01/25 04:15:14;;;;;;;0.40;0.40;;;0.90;91.60;;;;;;5055250;28;20166;-68
2022/01/25 04:17:43;;;;;;;0.40;0.40;;;0.90;91.60;;;;;;5054822;28;20170;-67
2022/01/25 04:20:25;;;;;;;0.30;0.30;;;0.80;91.50;;;;;;5054903;28;20672;-68
2022/01/25 04:25:35;;;;;;;0.40;0.40;;;0.90;91.60;;;;;;5054642;28;20240;-67
2022/01/25 04:28:01;;;;;;;0.40;0.40;;;0.80;91.50;;;;;;5054923;28;20170;-67
2022/01/25 04:30:27;;;;;;;0.40;0.40;;;0.80;91.80;;;;;;5054628;28;20244;-68
2022/01/25 04:33:02;;;;;;;0.30;0.30;;;0.90;92.10;;;;;;5054856;28;20198;-67
2022/01/25 04:49:18;;;;;;;0.30;0.30;;;1.00;92.00;;;;;;5054636;28;20698;-68
2022/01/25 04:51:58;;;;;;;0.40;0.40;;;1.10;91.70;;;;;;5054630;28;20655;-68
2022/01/25 04:57:15;;;;;;;0.30;0.30;;;1.10;91.20;;;;;;5053928;28;20295;-68
2022/01/25 05:02:36;;;;;;;0.40;0.40;;;1.20;90.80;;;;;;5054073;28;20235;-67
2022/01/25 05:05:01;;;;;;;0.40;0.40;;;1.20;90.70;;;;;;5054036;28;20182;-68
2022/01/25 05:07:42;;;;;;;0.40;0.40;;;1.20;90.80;;;;;;5053890;28;20166;-67
2022/01/25 05:10:08;;;;;;;0.40;0.40;;;1.20;90.80;;;;;;5053939;28;20674;-68
2022/01/25 05:12:45;;;;;;;0.30;0.30;;;1.10;90.70;;;;;;5053548;28;20249;-68
2022/01/25 05:15:23;;;;;;;0.30;0.30;;;1.10;90.90;;;;;;5054104;28;20174;-67
2022/01/25 05:18:11;;;;;;;0.40;0.40;;;1.10;91.10;;;;;;5054111;28;20245;-68
2022/01/25 05:23:21;;;;;;;0.30;0.30;;;1.00;91.40;;;;;;5054028;28;20666;-68
2022/01/25 05:25:47;;;;;;;0.30;0.30;;;1.00;91.70;;;;;;5052481;28;20182;-67
2022/01/25 05:28:12;;;;;;;0.40;0.40;;;1.00;92.30;;;;;;5052555;28;20194;-68
2022/01/25 05:30:38;;;;;;;0.40;0.40;;;1.00;92.00;;;;;;5053653;28;20202;-67
2022/01/25 05:33:04;;;;;;;0.30;0.30;;;1.00;92.00;;;;;;5053688;28;20545;-68
2022/01/25 05:35:30;;;;;;;0.40;0.40;;;1.00;92.10;;;;;;5053591;28;20170;-67
2022/01/25 05:37:55;;;;;;;0.30;0.30;;;0.90;92.10;;;;;;5052476;28;20703;-68
2022/01/25 05:40:39;;;;;;;0.30;0.30;;;0.90;92.20;;;;;;5053466;28;20523;-68
2022/01/25 05:48:31;;;;;;;0.30;0.30;;;1.00;92.40;;;;;;5053619;28;20216;-68
2022/01/25 05:50:57;;;;;;;0.30;0.30;;;1.00;92.30;;;;;;5053270;28;20254;-67
2022/01/25 05:53:23;;;;;;;0.40;0.40;;;1.00;92.40;;;;;;5053402;28;20224;-67
2022/01/25 05:55:49;;;;;;;0.30;0.30;;;1.00;92.50;;;;;;5053200;28;20178;-68
2022/01/25 05:58:15;;;;;;;0.50;0.50;;;1.00;92.60;;;;;;5053485;28;20174;-68
2022/01/25 06:00:41;;;;;;;0.40;0.40;;;1.00;92.60;;;;;;5053218;28;20223;-68
2022/01/25 06:03:07;;;;;;;0.37;0.37;;;1.00;92.60;;;;;;5053431;28;20197;-68
2022/01/25 06:05:34;;;;;;;0.40;0.40;;;1.00;92.50;;;;;;5053243;28;20397;-68
2022/01/25 06:07:59;;;;;;;0.40;0.40;;;1.00;92.40;;;;;;5053030;28;20245;-68
2022/01/25 06:10:25;;;;;;;0.40;0.40;;;1.00;92.40;;;;;;5053069;28;20201;-67
2022/01/25 06:12:51;;;;;;;0.40;0.40;;;1.00;92.50;;;;;;5053313;28;20634;-68
2022/01/25 06:15:16;;;;;;;0.30;0.30;;;1.00;92.70;;;;;;5053172;28;20194;-68
2022/01/25 06:17:42;;;;;;;0.40;0.40;;;1.00;92.70;;;;;;5053159;28;20170;-67
2022/01/25 06:20:09;;;;;;;0.30;0.30;;;1.00;92.70;;;;;;5053254;28;20424;-67
2022/01/25 06:22:34;;;;;;;0.30;0.30;;;1.00;92.70;;;;;;5053043;28;20257;-68
2022/01/25 06:25:00;;;;;;;0.40;0.40;;;1.00;92.60;;;;;;5055346;28;20206;-70
2022/01/25 06:27:27;;;;;;;0.30;0.30;;;0.90;92.70;;;;;;5056475;28;20174;-69
2022/01/25 06:29:57;;;;;;;0.30;0.30;;;0.80;92.70;;;;;;5056894;28;20873;-69
2022/01/25 06:32:23;;;;;;;0.30;0.30;;;0.80;92.80;;;;;;5054346;28;20654;-68
2022/01/25 06:34:49;;;;;;;0.40;0.40;;;0.80;92.90;;;;;;5055856;28;20550;-69
2022/01/25 06:37:15;;;;;;;0.40;0.40;;;0.80;93.30;;;;;;5056693;28;20245;-69
2022/01/25 06:39:42;;;;;;;0.30;0.30;;;0.80;93.60;;;;;;5056838;28;20210;-69
2022/01/25 06:42:08;;;;;;;0.40;0.40;;;0.80;93.60;;;;;;5057048;28;20178;-69
2022/01/25 06:44:36;;;;;;;0.30;0.30;;;0.80;93.70;;;;;;5056929;28;20569;-69
2022/01/25 06:47:02;;;;;;;0.30;0.30;;;0.80;93.70;;;;;;5056286;28;20174;-69
2022/01/25 06:49:28;;;;;;;0.30;0.30;;;0.90;93.60;;;;;;5055402;28;20209;-69
2022/01/25 06:51:54;;;;;;;0.33;0.33;;;0.90;93.40;;;;;;5055669;28;20170;-67
2022/01/25 06:54:20;;;;;;;0.40;0.40;;;0.90;93.40;;;;;;5056601;28;20412;-69
2022/01/25 06:56:45;;;;;;;0.40;0.40;;;0.90;93.30;;;;;;5056484;28;20312;-68
2022/01/25 06:59:11;;;;;;;0.30;0.30;;;0.90;93.20;;;;;;5056547;28;20209;-71
2022/01/25 07:01:37;;;;;;;0.40;0.40;;;0.90;93.00;;;;;;5054785;28;20574;-68
2022/01/25 07:04:03;;;;;;;0.30;0.30;;;1.00;93.10;;;;;;5054866;28;20179;-70
2022/01/25 07:06:28;;;;;;;0.30;0.30;;;1.00;93.10;;;;;;5056324;28;20170;-69
2022/01/25 07:08:54;;;;;;;0.40;0.40;;;1.10;93.00;;;;;;5056593;28;20495;-70
2022/01/25 07:11:20;;;;;;;0.40;0.40;;;1.10;92.80;;;;;;5056716;28;20194;-69
2022/01/25 07:13:47;;;;;;;0.40;0.40;;;1.10;92.60;;;;;;5056465;28;20184;-68
2022/01/25 07:16:13;;;;;;;0.40;0.40;;;1.10;92.60;;;;;;5056411;28;20170;-69
2022/01/25 07:18:38;;;;;;;0.30;0.30;;;1.10;92.70;;;;;;5056502;28;20198;-68
2022/01/25 07:21:04;;;;;;;0.40;0.40;;;1.10;92.80;;;;;;5054867;28;20181;-69
2022/01/25 07:23:30;;;;;;;0.40;0.40;;;1.10;92.80;;;;;;5055778;28;20221;-68
2022/01/25 07:25:56;;;;;;;0.30;0.30;;;1.20;92.80;;;;;;5055045;28;20248;-68
2022/01/25 07:28:21;;;;;;;0.30;0.30;;;1.20;92.80;;;;;;5055995;28;20187;-67
2022/01/25 07:30:47;;;;;;;0.40;0.40;;;1.20;92.90;;;;;;5054509;28;20510;-68
2022/01/25 07:33:13;;;;;;;0.30;0.30;;;1.20;93.00;;;;;;5055761;28;20174;-68
2022/01/25 07:35:40;;;;;;;0.40;0.40;;;1.30;92.90;;;;;;5055153;28;20193;-69
2022/01/25 07:38:06;;;;;;;0.30;0.30;;;1.30;92.70;;;;;;5055806;28;20434;-68
2022/01/25 07:40:35;;;;;;;0.40;0.40;;;1.40;92.50;;;;;;5055692;28;20186;-68
2022/01/25 07:43:01;;;;;;;0.40;0.40;;;1.40;92.40;;;;;;5055829;28;20253;-67
2022/01/25 07:45:29;;;;;;;0.40;0.40;;;1.40;92.30;;;;;;5055637;28;20174;-68
2022/01/25 07:47:54;;;;;;;0.40;0.40;;;1.40;92.10;;;;;;5055559;28;20173;-68
2022/01/25 07:50:20;;;;;;;0.40;0.40;;;1.40;91.90;;;;;;5055369;28;20210;-69
2022/01/25 07:52:46;;;;;;;0.30;0.30;;;1.50;91.80;;;;;;5055573;28;20228;-70
2022/01/25 07:55:12;;;;;;;0.40;0.40;;;1.60;91.80;;;;;;5055458;28;20196;-67
2022/01/25 07:57:39;;;;;;;0.30;0.30;;;1.60;91.60;;;;;;5055410;28;20525;-67
2022/01/25 08:00:05;;;;;;;0.40;0.40;;;1.60;91.40;;;;;;5055181;28;20211;-69
2022/01/25 08:02:31;;;;;;;0.30;0.30;;;1.70;91.40;;;;;;5055498;28;20236;-69
2022/01/25 08:04:57;;;;;;;0.40;0.40;;;1.70;91.70;;;;;;5055321;28;20179;-68
2022/01/25 08:07:22;;;;;;;0.40;0.40;;;2.00;92.70;;;;;;5055217;28;20664;-68
2022/01/25 08:09:48;;;;;;;0.30;0.30;;;3.00;91.80;;;;;;5055097;28;20201;-68
2022/01/25 08:12:14;;;;;;;0.33;0.33;;;4.30;88.60;;;;;;5055339;28;20170;-70
2022/01/25 08:14:42;;;;;;;0.40;0.40;;;5.60;83.70;;;;;;5055312;28;20158;-68
2022/01/25 08:17:08;;;;;;;0.40;0.40;;;6.70;77.10;;;;;;5054906;28;20215;-69
2022/01/25 08:19:35;;;;;;;0.40;0.40;;;7.40;72.40;;;;;;5055307;28;20194;-69
2022/01/25 08:22:00;;;;;;;0.30;0.30;;;8.20;69.40;;;;;;5055075;28;20190;-70
2022/01/25 08:24:26;;;;;;;0.40;0.40;;;8.90;64.70;;;;;;5054938;28;20264;-70
2022/01/25 08:26:52;;;;;;;0.30;0.30;;;9.40;61.70;;;;;;5054682;28;20169;-69
2022/01/25 08:29:18;;;;;;;0.40;0.40;;;10.30;58.10;;;;;;5054649;28;20205;-69
2022/01/25 08:31:44;;;;;;;0.30;0.30;;;11.20;55.40;;;;;;5054788;28;20169;-70
2022/01/25 08:34:13;;;;;;;0.30;0.30;;;11.90;52.70;;;;;;5055016;28;20528;-69
2022/01/25 08:36:40;;;;;;;0.30;0.30;;;12.50;50.40;;;;;;5054744;28;20405;-69
2022/01/25 08:39:07;;;;;;;0.40;0.40;;;12.90;48.80;;;;;;5054906;28;20707;-70
2022/01/25 08:41:32;;;;;;;0.40;0.40;;;13.00;47.90;;;;;;5054727;28;20568;-69
2022/01/25 08:43:58;;;;;;;0.30;0.30;;;12.90;47.70;;;;;;5054705;28;20206;-68
2022/01/25 08:46:24;;;;;;;0.30;0.30;;;13.00;47.40;;;;;;5053480;28;20246;-70
2022/01/25 08:48:50;;;;;;;0.30;0.30;;;13.20;46.80;;;;;;5054344;28;20189;-68
2022/01/25 08:51:16;;;;;;;0.30;0.30;;;13.10;46.30;;;;;;5054346;28;20198;-68
2022/01/25 08:53:42;;;;;;;0.30;0.30;;;13.10;46.10;;;;;;5054506;28;20194;-70
2022/01/25 08:56:08;;;;;;;0.65;0.65;;;13.30;46.00;;;;;;5051748;28;20257;-76
2022/01/25 08:58:35;;;;;;;0.30;0.30;;;13.10;46.50;;;;;;5054295;28;20646;-70
2022/01/25 09:01:00;;;;;;;0.30;0.30;;;12.90;46.50;;;;;;5054673;28;20401;-75
2022/01/25 09:03:26;;;;;;;0.40;0.40;;;13.10;46.30;;;;;;5054317;28;20546;-79
2022/01/25 09:05:53;;;;;;;0.30;0.30;;;13.30;45.90;;;;;;5054212;28;20171;-69
2022/01/25 09:08:23;;;;;;;0.35;0.35;;;13.20;46.60;;;;;;5054040;28;20177;-69
2022/01/25 09:10:52;;;;;;;0.40;0.40;;;13.20;46.90;;;;;;5054289;28;20558;-70
2022/01/25 09:13:19;;;;;;;0.40;0.40;;;13.90;46.10;;;;;;5054234;28;20158;-70
2022/01/25 09:15:46;;;;;;;0.30;0.30;;;14.00;45.10;;;;;;5053777;28;20552;-69
2022/01/25 09:18:11;;;;;;;0.30;0.30;;;14.40;45.60;;;;;;5054029;28;20397;-69
2022/01/25 09:20:37;;;;;;;0.30;0.30;;;14.90;44.50;;;;;;5054385;28;20409;-69
2022/01/25 09:23:03;;;;;;;0.90;0.87;;;15.50;43.80;;;;;;5054406;28;20565;-69
2022/01/25 09:25:30;;;;;;;1.23;1.23;;;16.10;42.50;;;;;;5053868;28;20170;-72
2022/01/25 09:27:55;;;;;;;1.53;1.43;;;16.70;41.60;;;;;;5051493;28;20486;-68
2022/01/25 09:30:21;;;;;;;0.40;0.40;;;17.60;39.80;;;;;;5052678;28;20973;-68
2022/01/25 09:32:47;;;;;;;0.40;0.40;;;18.10;39.30;;;;;;5053726;28;20665;-70
2022/01/25 09:35:13;;;;;;;0.60;0.60;;;18.80;36.70;;;;;;5053753;28;20166;-74
2022/01/25 09:37:38;;;;;;;0.37;0.37;;;19.40;35.50;;;;;;5053565;28;20198;-69
2022/01/25 09:40:05;;;;;;;0.30;0.30;;;19.70;34.70;;;;;;5053445;28;20201;-71
2022/01/25 09:42:31;;;;;;;0.40;0.40;;;20.10;33.70;;;;;;5053580;28;20839;-76
2022/01/25 09:44:58;;;;;;;0.30;0.30;;;20.40;32.30;;;;;;5053573;28;20425;-70
2022/01/25 09:47:24;;;;;;;0.40;0.40;;;20.50;31.30;;;;;;5052249;28;20436;-71
2022/01/25 09:49:50;;;;;;;0.40;0.40;;;20.40;31.70;;;;;;5053550;28;20491;-71
2022/01/25 09:52:18;;;;;;;0.30;0.30;;;20.20;32.10;;;;;;5053688;28;20405;-70
2022/01/25 09:54:56;;;;;;;0.40;0.40;;;19.90;31.20;;;;;;5053525;28;20446;-69
2022/01/25 09:57:23;;;;;;;0.50;0.50;;;19.50;32.80;;;;;;5053092;28;20484;-71
2022/01/25 09:59:49;;;;;;;0.30;0.30;;;19.50;32.10;;;;;;5053592;28;20452;-72
2022/01/25 10:02:47;;;;;;;2.10;2.00;;;19.70;34.40;;;;;;5053715;28;20488;-69
2022/01/25 10:05:35;;;;;;;0.30;0.30;;;20.00;34.30;;;;;;5053974;28;20399;-69
2022/01/25 10:08:09;;;;;;;0.80;0.80;;;20.50;32.60;;;;;;5053088;28;20413;-69
2022/01/25 10:10:41;;;;;;;0.30;0.30;;;20.90;31.90;;;;;;5053631;28;20946;-71
2022/01/25 10:13:07;;;;;;;0.30;0.30;;;21.20;31.70;;;;;;5050028;28;20484;-71
2022/01/25 10:15:34;;;;;;;0.30;0.30;;;21.30;30.10;;;;;;5051535;28;20414;-69
2022/01/25 10:18:00;;;;;;;0.63;0.63;;;21.50;30.00;;;;;;5053342;28;20952;-70
2022/01/25 10:20:35;;;;;;;0.30;0.30;;;21.70;29.90;;;;;;5052567;28;20498;-68
2022/01/25 10:23:05;;;;;;;0.30;0.30;;;21.90;29.60;;;;;;5053604;28;20176;-70
2022/01/25 10:25:39;;;;;;;0.30;0.30;;;21.90;29.40;;;;;;5053451;28;20411;-69
2022/01/25 10:28:11;;;;;;;0.30;0.30;;;21.90;29.30;;;;;;5051043;28;20812;-71
2022/01/25 10:30:53;;;;;;;0.60;0.60;;;22.00;29.20;;;;;;5051393;28;20460;-71
2022/01/25 10:33:39;;;;;;;2.20;2.10;;;22.10;29.30;;;;;;5052815;28;20879;-71
2022/01/25 10:36:22;;;;;;;0.30;0.30;;;22.00;29.40;;;;;;5052501;28;20451;-71
2022/01/25 10:38:50;;;;;;;0.30;0.30;;;21.90;29.30;;;;;;5053195;28;20826;-71
2022/01/25 10:41:22;;;;;;;0.30;0.30;;;21.80;29.40;;;;;;5053217;28;20408;-71
2022/01/25 10:43:50;;;;;;;0.40;0.40;;;21.80;29.30;;;;;;5053045;28;20410;-71
2022/01/25 10:46:23;;;;;;;0.30;0.30;;;21.50;29.50;;;;;;5052782;28;20419;-71
2022/01/25 10:48:59;;;;;;;0.30;0.30;;;21.20;29.40;;;;;;5052957;28;20430;-71
2022/01/25 10:51:28;;;;;;;0.30;0.30;;;21.10;30.00;;;;;;5052831;28;20447;-70
2022/01/25 10:54:04;;;;;;;0.40;0.40;;;20.90;30.50;;;;;;5053246;28;20962;-71
2022/01/25 10:56:43;;;;;;;0.30;0.30;;;20.90;30.10;;;;;;5052694;28;20413;-71
2022/01/25 10:59:12;;;;;;;0.60;0.60;;;20.60;30.00;;;;;;5052702;28;20438;-68
2022/01/25 11:01:52;;;;;;;0.30;0.30;;;20.40;30.50;;;;;;5052768;28;20422;-68
2022/01/25 11:04:22;;;;;;;0.40;0.40;;;20.10;31.00;;;;;;5052996;28;20405;-69
2022/01/25 11:06:54;;;;;;;0.30;0.30;;;19.80;31.10;;;;;;5051482;28;20807;-68
2022/01/25 11:09:25;;;;;;;0.30;0.30;;;19.10;33.70;;;;;;5051565;28;20420;-68
2022/01/25 11:11:55;;;;;;;0.30;0.30;;;17.90;34.10;;;;;;5055832;28;20483;-68
2022/01/25 11:17:05;;;;;;;0.30;0.30;;;16.40;36.00;;;;;;5055853;28;20776;-68
2022/01/25 11:19:31;;;;;;;0.30;0.30;;;15.90;36.70;;;;;;5056057;28;20424;-71
2022/01/25 11:21:59;;;;;;;0.40;0.40;;;15.40;38.00;;;;;;5056098;28;20253;-71
2022/01/25 11:24:26;;;;;;;0.50;0.50;;;14.90;38.00;;;;;;5056176;28;20524;-71
2022/01/25 11:26:53;;;;;;;0.30;0.30;;;14.70;38.50;;;;;;5055924;28;20431;-71
2022/01/25 11:29:19;;;;;;;0.30;0.30;;;14.30;38.90;;;;;;5056095;28;20941;-71
2022/01/25 11:31:57;;;;;;;0.40;0.40;;;13.90;39.90;;;;;;5056118;28;20397;-71
2022/01/25 11:34:26;;;;;;;0.30;0.30;;;13.40;41.80;;;;;;5056218;28;20397;-71
2022/01/25 11:36:57;;;;;;;0.30;0.30;;;13.40;41.60;;;;;;5055646;28;20455;-71
2022/01/25 11:39:26;;;;;;;0.52;0.52;;;13.30;41.00;;;;;;5055729;28;20523;-71
2022/01/25 11:42:08;;;;;;;0.30;0.30;;;13.10;42.10;;;;;;5054583;28;20174;-71
2022/01/25 11:44:35;;;;;;;0.30;0.30;;;12.90;41.70;;;;;;5055967;28;20526;-70
2022/01/25 11:47:10;;;;;;;0.30;0.30;;;12.50;43.00;;;;;;5055471;28;20170;-71
2022/01/25 11:49:50;;;;;;;0.35;0.35;;;12.40;43.50;;;;;;5055678;28;20273;-71
2022/01/25 11:52:16;;;;;;;0.30;0.30;;;12.30;44.20;;;;;;5055643;28;20249;-70
2022/01/25 11:54:43;;;;;;;0.50;0.50;;;12.20;44.90;;;;;;5055489;28;20185;-71
2022/01/25 11:57:15;;;;;;;0.40;0.40;;;12.20;45.60;;;;;;5054226;28;20212;-71
2022/01/25 11:59:42;;;;;;;0.30;0.30;;;12.10;44.80;;;;;;5055312;28;20210;-71
2022/01/25 12:02:09;;;;;;;0.30;0.30;;;12.10;46.50;;;;;;5055278;28;20251;-71
2022/01/25 12:04:35;;;;;;;0.30;0.30;;;12.20;45.00;;;;;;5055358;28;20178;-71
2022/01/25 12:07:08;;;;;;;0.30;0.30;;;12.00;46.30;;;;;;5055284;28;20180;-71
2022/01/25 12:09:47;;;;;;;0.40;0.40;;;12.00;46.20;;;;;;5055090;28;20209;-71
2022/01/25 12:12:15;;;;;;;0.40;0.40;;;11.90;46.10;;;;;;5055173;28;20155;-70
2022/01/25 12:14:48;;;;;;;0.52;0.52;;;11.80;44.70;;;;;;5055145;28;20163;-70
2022/01/25 12:17:20;;;;;;;0.30;0.30;;;11.70;45.40;;;;;;5055098;28;20204;-71
2022/01/25 12:20:00;;;;;;;0.30;0.30;;;11.50;47.10;;;;;;5055114;28;20535;-71
2022/01/25 12:22:47;;;;;;;0.38;0.38;;;11.20;48.00;;;;;;5055227;28;20226;-71
2022/01/25 12:28:10;;;;;;;0.40;0.40;;;10.50;47.00;;;;;;5055733;28;20538;-71
2022/01/25 12:30:43;;;;;;;1.42;1.38;;;10.10;48.20;;;;;;5054718;28;20557;-71
2022/01/25 12:33:19;;;;;;;0.40;0.40;;;9.90;49.30;;;;;;5054983;28;20504;-71
2022/01/25 12:36:05;;;;;;;0.30;0.30;;;9.70;50.00;;;;;;5054646;28;20639;-70
2022/01/25 12:38:46;;;;;;;1.20;1.05;;;9.40;50.60;;;;;;5054772;28;20201;-71
2022/01/25 12:41:28;;;;;;;0.30;0.30;;;9.10;52.10;;;;;;5054636;28;20578;-71
2022/01/25 12:44:05;;;;;;;0.30;0.30;;;8.90;52.80;;;;;;5055057;28;20656;-71
2022/01/25 12:46:40;;;;;;;0.40;0.40;;;8.70;52.30;;;;;;5054489;28;20177;-71
2022/01/25 12:49:10;;;;;;;0.57;0.57;;;8.60;51.60;;;;;;5054528;28;20190;-71
2022/01/25 12:51:39;;;;;;;0.40;0.40;;;8.60;51.80;;;;;;5055047;28;20168;-71
2022/01/25 12:54:08;;;;;;;0.40;0.40;;;8.50;52.80;;;;;;5054554;28;20277;-71
2022/01/25 12:56:46;;;;;;;0.40;0.40;;;8.40;53.80;;;;;;5054249;28;20196;-71
2022/01/25 12:59:15;;;;;;;0.40;0.40;;;8.10;54.40;;;;;;5054266;28;20200;-70
2022/01/25 13:01:42;;;;;;;0.40;0.40;;;8.00;54.30;;;;;;5054269;28;20628;-70
2022/01/25 13:04:11;;;;;;;0.40;0.40;;;7.50;55.50;;;;;;5054352;28;20504;-71
2022/01/25 13:06:39;;;;;;;0.40;0.40;;;7.10;56.50;;;;;;5053981;28;20168;-70
2022/01/25 13:09:13;;;;;;;0.30;0.30;;;7.00;57.20;;;;;;5054000;28;20333;-71
2022/01/25 13:17:15;;;;;;;0.30;0.30;;;7.30;57.40;;;;;;5053824;28;20523;-71
2022/01/25 13:19:53;;;;;;;0.35;0.35;;;7.30;56.80;;;;;;5053981;28;20194;-70
2022/01/25 13:22:35;;;;;;;0.38;0.38;;;7.20;57.10;;;;;;5054141;28;20201;-70
2022/01/25 13:25:26;;;;;;;0.40;0.40;;;6.90;57.20;;;;;;5054018;28;20573;-71
2022/01/25 13:27:55;;;;;;;0.40;0.40;;;6.90;58.20;;;;;;5054084;28;20170;-70
2022/01/25 13:30:45;;;;;;;0.40;0.40;;;7.00;58.30;;;;;;5053604;28;20203;-71
2022/01/25 13:33:19;;;;;;;0.40;0.40;;;7.10;58.00;;;;;;5053570;28;20253;-71
2022/01/25 13:35:53;;;;;;;0.32;0.32;;;7.20;57.90;;;;;;5053714;28;20154;-70
2022/01/25 13:38:21;;;;;;;0.40;0.40;;;7.10;56.60;;;;;;5053939;28;20590;-71
2022/01/25 13:41:01;;;;;;;0.40;0.40;;;7.20;56.80;;;;;;5053714;28;20178;-70
2022/01/25 13:46:05;;;;;;;0.40;0.40;;;7.20;56.10;;;;;;5053475;28;20174;-70
2022/01/25 13:48:32;;;;;;;0.40;0.40;;;7.00;55.20;;;;;;5053819;28;20289;-70
2022/01/25 13:51:01;;;;;;;0.30;0.30;;;6.70;54.90;;;;;;5053535;28;20202;-70
2022/01/25 13:53:27;;;;;;;0.40;0.40;;;6.70;55.20;;;;;;5052262;28;20171;-70
2022/01/25 13:55:56;;;;;;;0.30;0.30;;;6.80;55.40;;;;;;5053376;28;20168;-71
2022/01/25 13:58:26;;;;;;;0.38;0.38;;;6.90;56.60;;;;;;5053406;28;20194;-71
2022/01/25 14:00:53;;;;;;;0.40;0.40;;;6.60;57.10;;;;;;5053600;28;20264;-70
2022/01/25 14:03:24;;;;;;;0.30;0.30;;;6.50;58.30;;;;;;5053503;28;20292;-70
2022/01/25 14:05:50;;;;;;;0.40;0.40;;;6.50;59.30;;;;;;5053394;28;20197;-70
2022/01/25 14:08:16;;;;;;;0.40;0.40;;;6.50;58.90;;;;;;5053351;28;20170;-70
2022/01/25 14:10:46;;;;;;;0.30;0.30;;;6.60;59.10;;;;;;5053207;28;20198;-70
2022/01/25 14:24:06;;;;;;;0.40;0.40;;;6.90;58.00;;;;;;5053219;28;20181;-70
2022/01/25 14:26:32;;;;;;;0.40;0.40;;;6.90;57.20;;;;;;5053106;28;20554;-71
2022/01/25 14:29:12;;;;;;;0.40;0.40;;;6.90;57.40;;;;;;5053026;28;20660;-71
2022/01/25 14:31:42;;;;;;;0.40;0.40;;;6.80;57.10;;;;;;5051640;28;20308;-70
2022/01/25 14:34:13;;;;;;;1.20;1.20;;;6.70;56.40;;;;;;5052975;28;20170;-70
2022/01/25 14:36:42;;;;;;;0.40;0.40;;;6.70;56.30;;;;;;5052911;28;20257;-70
2022/01/25 14:39:09;;;;;;;0.40;0.40;;;6.70;55.90;;;;;;5053263;28;20182;-70
2022/01/25 14:41:37;;;;;;;0.40;0.40;;;6.70;55.90;;;;;;5052939;28;20190;-70
2022/01/25 14:44:05;;;;;;;0.38;0.38;;;6.70;56.10;;;;;;5052778;28;20192;-70
2022/01/25 14:46:41;;;;;;;0.40;0.40;;;6.70;55.90;;;;;;5056364;28;20233;-70
2022/01/25 14:49:21;;;;;;;0.40;0.40;;;6.70;55.40;;;;;;5056932;28;20270;-70
2022/01/25 14:51:56;;;;;;;0.40;0.40;;;6.70;55.70;;;;;;5056966;28;20194;-70
2022/01/25 14:54:23;;;;;;;0.40;0.40;;;6.70;56.10;;;;;;5056875;28;20169;-70
2022/01/25 14:56:53;;;;;;;0.40;0.40;;;6.80;55.80;;;;;;5056373;28;20162;-70
2022/01/25 14:59:25;;;;;;;0.40;0.40;;;6.80;56.20;;;;;;5055595;28;20202;-70
2022/01/25 15:02:03;;;;;;;0.40;0.40;;;6.80;55.60;;;;;;5056720;28;20724;-70
2022/01/25 15:04:36;;;;;;;0.40;0.40;;;6.80;55.50;;;;;;5056487;28;20166;-70
2022/01/25 15:07:06;;;;;;;0.30;0.30;;;6.60;56.20;;;;;;5056436;28;20166;-70
2022/01/25 15:09:32;;;;;;;0.40;0.40;;;6.50;57.20;;;;;;5056453;28;20262;-70